sensor_id;sensor_type;location;lat;lon;timestamp;P1;durP1;ratioP1;P2;durP2;ratioP2
17818;SDS011;9034;50.284;19.310;2023-02-15T00:00:16;63.72;;;39.47;;
17818;SDS011;9034;50.284;19.310;2023-02-15T00:01:18;70.38;;;40.40;;
17818;SDS011;9034;50.284;19.310;2023-02-15T00:02:21;60.55;;;37.47;;
17818;SDS011;9034;50.284;19.310;2023-02-15T00:03:23;58.45;;;37.10;;
17818;SDS011;9034;50.284;19.310;2023-02-15T00:04:26;65.18;;;39.28;;
17818;SDS011;9034;50.284;19.310;2023-02-15T00:05:47;65.80;;;38.95;;
17818;SDS011;9034;50.284;19.310;2023-02-15T00:06:49;62.65;;;37.83;;
17818;SDS011;9034;50.284;19.310;2023-02-15T00:07:52;47.33;;;31.02;;
17818;SDS011;9034;50.284;19.310;2023-02-15T00:08:54;50.50;;;32.45;;
17818;SDS011;9034;50.284;19.310;2023-02-15T00:09:58;46.28;;;30.95;;
17818;SDS011;9034;50.284;19.310;2023-02-15T00:11:04;43.50;;;29.88;;
17818;SDS011;9034;50.284;19.310;2023-02-15T00:12:08;48.28;;;30.95;;
17818;SDS011;9034;50.284;19.310;2023-02-15T00:13:10;46.53;;;32.28;;
17818;SDS011;9034;50.284;19.310;2023-02-15T00:14:14;48.42;;;31.83;;
17818;SDS011;9034;50.284;19.310;2023-02-15T00:15:17;47.67;;;30.98;;
17818;SDS011;9034;50.284;19.310;2023-02-15T00:16:20;45.47;;;30.05;;
17818;SDS011;9034;50.284;19.310;2023-02-15T00:17:22;50.53;;;32.38;;
17818;SDS011;9034;50.284;19.310;2023-02-15T00:18:24;47.05;;;30.48;;
17818;SDS011;9034;50.284;19.310;2023-02-15T00:19:26;44.88;;;29.65;;
17818;SDS011;9034;50.284;19.310;2023-02-15T00:20:29;49.45;;;30.88;;
17818;SDS011;9034;50.284;19.310;2023-02-15T00:21:31;49.40;;;31.05;;
17818;SDS011;9034;50.284;19.310;2023-02-15T00:22:35;46.60;;;30.17;;
17818;SDS011;9034;50.284;19.310;2023-02-15T00:23:38;48.70;;;30.65;;
17818;SDS011;9034;50.284;19.310;2023-02-15T00:24:40;47.55;;;30.33;;
17818;SDS011;9034;50.284;19.310;2023-02-15T00:25:44;44.33;;;28.77;;
17818;SDS011;9034;50.284;19.310;2023-02-15T00:27:04;50.60;;;32.45;;
17818;SDS011;9034;50.284;19.310;2023-02-15T00:28:07;51.85;;;32.47;;
17818;SDS011;9034;50.284;19.310;2023-02-15T00:29:10;58.97;;;36.13;;
17818;SDS011;9034;50.284;19.310;2023-02-15T00:30:13;59.10;;;36.03;;
17818;SDS011;9034;50.284;19.310;2023-02-15T00:31:16;54.63;;;35.45;;
17818;SDS011;9034;50.284;19.310;2023-02-15T00:32:18;57.50;;;34.05;;
17818;SDS011;9034;50.284;19.310;2023-02-15T00:33:21;53.50;;;33.35;;
17818;SDS011;9034;50.284;19.310;2023-02-15T00:34:27;49.30;;;26.98;;
17818;SDS011;9034;50.284;19.310;2023-02-15T00:35:30;49.75;;;28.08;;
17818;SDS011;9034;50.284;19.310;2023-02-15T00:36:32;46.45;;;27.63;;
17818;SDS011;9034;50.284;19.310;2023-02-15T00:37:35;41.47;;;26.27;;
17818;SDS011;9034;50.284;19.310;2023-02-15T00:38:56;42.63;;;26.83;;
17818;SDS011;9034;50.284;19.310;2023-02-15T00:40:17;53.03;;;31.38;;
17818;SDS011;9034;50.284;19.310;2023-02-15T00:41:42;47.88;;;27.83;;
17818;SDS011;9034;50.284;19.310;2023-02-15T00:42:45;50.83;;;31.27;;
17818;SDS011;9034;50.284;19.310;2023-02-15T00:43:49;55.75;;;32.75;;
17818;SDS011;9034;50.284;19.310;2023-02-15T00:44:51;64.55;;;32.88;;
17818;SDS011;9034;50.284;19.310;2023-02-15T00:45:54;53.13;;;32.10;;
17818;SDS011;9034;50.284;19.310;2023-02-15T00:46:56;50.92;;;32.03;;
17818;SDS011;9034;50.284;19.310;2023-02-15T00:47:59;53.25;;;31.23;;
17818;SDS011;9034;50.284;19.310;2023-02-15T00:49:01;57.90;;;33.55;;
17818;SDS011;9034;50.284;19.310;2023-02-15T00:50:05;53.90;;;32.85;;
17818;SDS011;9034;50.284;19.310;2023-02-15T00:51:07;53.33;;;31.92;;
17818;SDS011;9034;50.284;19.310;2023-02-15T00:52:10;55.00;;;31.80;;
17818;SDS011;9034;50.284;19.310;2023-02-15T00:53:13;56.10;;;32.58;;
17818;SDS011;9034;50.284;19.310;2023-02-15T00:54:15;53.45;;;31.02;;
17818;SDS011;9034;50.284;19.310;2023-02-15T00:55:18;51.80;;;31.27;;
17818;SDS011;9034;50.284;19.310;2023-02-15T00:56:20;51.38;;;30.90;;
17818;SDS011;9034;50.284;19.310;2023-02-15T00:57:25;51.35;;;30.05;;
17818;SDS011;9034;50.284;19.310;2023-02-15T00:58:27;53.95;;;29.85;;
17818;SDS011;9034;50.284;19.310;2023-02-15T00:59:30;55.08;;;32.15;;
17818;SDS011;9034;50.284;19.310;2023-02-15T01:00:33;57.75;;;31.08;;
17818;SDS011;9034;50.284;19.310;2023-02-15T01:01:35;51.20;;;32.45;;
17818;SDS011;9034;50.284;19.310;2023-02-15T01:02:38;68.32;;;39.05;;
17818;SDS011;9034;50.284;19.310;2023-02-15T01:03:40;58.67;;;33.97;;
17818;SDS011;9034;50.284;19.310;2023-02-15T01:04:43;61.42;;;34.10;;
17818;SDS011;9034;50.284;19.310;2023-02-15T01:05:46;59.53;;;32.72;;
17818;SDS011;9034;50.284;19.310;2023-02-15T01:06:49;62.80;;;33.17;;
17818;SDS011;9034;50.284;19.310;2023-02-15T01:07:51;58.00;;;32.65;;
17818;SDS011;9034;50.284;19.310;2023-02-15T01:08:55;58.80;;;32.97;;
17818;SDS011;9034;50.284;19.310;2023-02-15T01:09:56;56.40;;;31.67;;
17818;SDS011;9034;50.284;19.310;2023-02-15T01:11:02;60.10;;;33.60;;
17818;SDS011;9034;50.284;19.310;2023-02-15T01:12:05;58.97;;;32.08;;
17818;SDS011;9034;50.284;19.310;2023-02-15T01:13:09;49.60;;;30.35;;
17818;SDS011;9034;50.284;19.310;2023-02-15T01:14:11;50.97;;;30.17;;
17818;SDS011;9034;50.284;19.310;2023-02-15T01:15:15;52.42;;;30.02;;
17818;SDS011;9034;50.284;19.310;2023-02-15T01:16:17;49.63;;;30.15;;
17818;SDS011;9034;50.284;19.310;2023-02-15T01:17:20;56.03;;;30.48;;
17818;SDS011;9034;50.284;19.310;2023-02-15T01:18:22;54.55;;;29.85;;
17818;SDS011;9034;50.284;19.310;2023-02-15T01:19:25;52.00;;;29.48;;
17818;SDS011;9034;50.284;19.310;2023-02-15T01:20:28;48.72;;;29.23;;
17818;SDS011;9034;50.284;19.310;2023-02-15T01:21:31;52.00;;;28.73;;
17818;SDS011;9034;50.284;19.310;2023-02-15T01:22:36;53.47;;;30.17;;
17818;SDS011;9034;50.284;19.310;2023-02-15T01:23:40;53.03;;;29.65;;
17818;SDS011;9034;50.284;19.310;2023-02-15T01:24:42;50.78;;;29.27;;
17818;SDS011;9034;50.284;19.310;2023-02-15T01:25:45;49.10;;;28.33;;
17818;SDS011;9034;50.284;19.310;2023-02-15T01:26:47;51.85;;;28.67;;
17818;SDS011;9034;50.284;19.310;2023-02-15T01:27:50;52.13;;;28.10;;
17818;SDS011;9034;50.284;19.310;2023-02-15T01:28:53;48.28;;;28.50;;
17818;SDS011;9034;50.284;19.310;2023-02-15T01:29:57;52.42;;;27.70;;
17818;SDS011;9034;50.284;19.310;2023-02-15T01:30:59;50.08;;;28.83;;
17818;SDS011;9034;50.284;19.310;2023-02-15T01:32:02;55.08;;;29.13;;
17818;SDS011;9034;50.284;19.310;2023-02-15T01:33:04;53.47;;;27.55;;
17818;SDS011;9034;50.284;19.310;2023-02-15T01:34:07;53.38;;;28.55;;
17818;SDS011;9034;50.284;19.310;2023-02-15T01:35:09;50.63;;;29.02;;
17818;SDS011;9034;50.284;19.310;2023-02-15T01:36:12;55.65;;;29.60;;
17818;SDS011;9034;50.284;19.310;2023-02-15T01:37:14;56.38;;;29.48;;
17818;SDS011;9034;50.284;19.310;2023-02-15T01:38:17;57.00;;;28.55;;
17818;SDS011;9034;50.284;19.310;2023-02-15T01:39:19;50.28;;;29.13;;
17818;SDS011;9034;50.284;19.310;2023-02-15T01:40:41;52.65;;;29.33;;
17818;SDS011;9034;50.284;19.310;2023-02-15T01:42:04;56.20;;;30.20;;
17818;SDS011;9034;50.284;19.310;2023-02-15T01:43:11;51.75;;;28.95;;
17818;SDS011;9034;50.284;19.310;2023-02-15T01:45:50;51.67;;;27.90;;
17818;SDS011;9034;50.284;19.310;2023-02-15T01:46:52;49.63;;;27.02;;
17818;SDS011;9034;50.284;19.310;2023-02-15T01:47:56;47.38;;;28.20;;
17818;SDS011;9034;50.284;19.310;2023-02-15T01:49:01;52.08;;;27.67;;
17818;SDS011;9034;50.284;19.310;2023-02-15T01:50:07;47.03;;;25.40;;
17818;SDS011;9034;50.284;19.310;2023-02-15T01:51:11;59.75;;;32.15;;
17818;SDS011;9034;50.284;19.310;2023-02-15T01:52:16;62.33;;;31.70;;
17818;SDS011;9034;50.284;19.310;2023-02-15T01:53:20;56.88;;;29.75;;
17818;SDS011;9034;50.284;19.310;2023-02-15T01:54:25;58.42;;;30.23;;
17818;SDS011;9034;50.284;19.310;2023-02-15T01:55:32;50.15;;;28.40;;
17818;SDS011;9034;50.284;19.310;2023-02-15T01:56:37;52.70;;;26.95;;
17818;SDS011;9034;50.284;19.310;2023-02-15T01:57:40;49.58;;;28.73;;
17818;SDS011;9034;50.284;19.310;2023-02-15T01:58:43;51.95;;;28.80;;
17818;SDS011;9034;50.284;19.310;2023-02-15T01:59:49;47.90;;;26.52;;
17818;SDS011;9034;50.284;19.310;2023-02-15T02:00:54;47.22;;;26.05;;
17818;SDS011;9034;50.284;19.310;2023-02-15T02:02:01;45.38;;;24.92;;
17818;SDS011;9034;50.284;19.310;2023-02-15T02:03:05;43.67;;;25.27;;
17818;SDS011;9034;50.284;19.310;2023-02-15T02:04:09;49.03;;;25.13;;
17818;SDS011;9034;50.284;19.310;2023-02-15T02:05:14;47.58;;;26.50;;
17818;SDS011;9034;50.284;19.310;2023-02-15T02:06:17;46.90;;;26.50;;
17818;SDS011;9034;50.284;19.310;2023-02-15T02:07:22;47.30;;;25.90;;
17818;SDS011;9034;50.284;19.310;2023-02-15T02:08:25;42.58;;;26.38;;
17818;SDS011;9034;50.284;19.310;2023-02-15T02:09:28;46.72;;;27.45;;
17818;SDS011;9034;50.284;19.310;2023-02-15T02:10:31;47.05;;;27.80;;
17818;SDS011;9034;50.284;19.310;2023-02-15T02:11:33;49.20;;;27.45;;
17818;SDS011;9034;50.284;19.310;2023-02-15T02:12:37;49.72;;;26.33;;
17818;SDS011;9034;50.284;19.310;2023-02-15T02:13:43;39.78;;;23.33;;
17818;SDS011;9034;50.284;19.310;2023-02-15T02:14:47;51.13;;;25.85;;
17818;SDS011;9034;50.284;19.310;2023-02-15T02:15:52;45.95;;;26.05;;
17818;SDS011;9034;50.284;19.310;2023-02-15T02:16:59;49.70;;;26.60;;
17818;SDS011;9034;50.284;19.310;2023-02-15T02:18:11;43.50;;;25.98;;
17818;SDS011;9034;50.284;19.310;2023-02-15T02:19:36;45.33;;;27.20;;
17818;SDS011;9034;50.284;19.310;2023-02-15T02:20:52;44.60;;;24.23;;
17818;SDS011;9034;50.284;19.310;2023-02-15T02:23:49;37.22;;;22.08;;
17818;SDS011;9034;50.284;19.310;2023-02-15T02:28:09;45.15;;;28.52;;
17818;SDS011;9034;50.284;19.310;2023-02-15T02:29:26;41.28;;;26.50;;
17818;SDS011;9034;50.284;19.310;2023-02-15T02:30:40;43.97;;;27.60;;
17818;SDS011;9034;50.284;19.310;2023-02-15T02:32:00;42.20;;;27.92;;
17818;SDS011;9034;50.284;19.310;2023-02-15T02:33:21;47.55;;;28.65;;
17818;SDS011;9034;50.284;19.310;2023-02-15T02:34:29;40.80;;;26.95;;
17818;SDS011;9034;50.284;19.310;2023-02-15T02:35:33;41.03;;;27.95;;
17818;SDS011;9034;50.284;19.310;2023-02-15T02:36:40;39.47;;;28.58;;
17818;SDS011;9034;50.284;19.310;2023-02-15T02:37:49;41.90;;;27.17;;
17818;SDS011;9034;50.284;19.310;2023-02-15T02:39:04;38.42;;;27.50;;
17818;SDS011;9034;50.284;19.310;2023-02-15T02:40:10;46.08;;;28.25;;
17818;SDS011;9034;50.284;19.310;2023-02-15T02:41:17;42.10;;;28.95;;
17818;SDS011;9034;50.284;19.310;2023-02-15T02:42:29;46.47;;;30.10;;
17818;SDS011;9034;50.284;19.310;2023-02-15T02:43:38;43.53;;;29.10;;
17818;SDS011;9034;50.284;19.310;2023-02-15T02:44:44;44.25;;;28.25;;
17818;SDS011;9034;50.284;19.310;2023-02-15T02:45:51;38.60;;;25.63;;
17818;SDS011;9034;50.284;19.310;2023-02-15T02:46:57;41.08;;;27.05;;
17818;SDS011;9034;50.284;19.310;2023-02-15T02:48:03;32.42;;;24.20;;
17818;SDS011;9034;50.284;19.310;2023-02-15T02:49:10;38.40;;;26.17;;
17818;SDS011;9034;50.284;19.310;2023-02-15T02:50:14;36.47;;;26.15;;
17818;SDS011;9034;50.284;19.310;2023-02-15T02:51:18;40.80;;;25.75;;
17818;SDS011;9034;50.284;19.310;2023-02-15T02:52:36;38.40;;;24.98;;
17818;SDS011;9034;50.284;19.310;2023-02-15T02:53:40;37.55;;;24.90;;
17818;SDS011;9034;50.284;19.310;2023-02-15T02:54:43;34.70;;;23.83;;
17818;SDS011;9034;50.284;19.310;2023-02-15T02:55:46;37.38;;;23.65;;
17818;SDS011;9034;50.284;19.310;2023-02-15T02:56:50;37.75;;;23.98;;
17818;SDS011;9034;50.284;19.310;2023-02-15T02:57:53;35.92;;;23.60;;
17818;SDS011;9034;50.284;19.310;2023-02-15T02:58:59;37.97;;;23.75;;
17818;SDS011;9034;50.284;19.310;2023-02-15T03:00:04;38.47;;;23.02;;
17818;SDS011;9034;50.284;19.310;2023-02-15T03:01:10;36.95;;;23.90;;
17818;SDS011;9034;50.284;19.310;2023-02-15T03:02:16;34.05;;;23.55;;
17818;SDS011;9034;50.284;19.310;2023-02-15T03:03:22;35.70;;;23.73;;
17818;SDS011;9034;50.284;19.310;2023-02-15T03:04:30;37.13;;;22.75;;
17818;SDS011;9034;50.284;19.310;2023-02-15T03:05:35;34.25;;;22.27;;
17818;SDS011;9034;50.284;19.310;2023-02-15T03:06:40;33.10;;;21.08;;
17818;SDS011;9034;50.284;19.310;2023-02-15T03:07:45;28.58;;;19.70;;
17818;SDS011;9034;50.284;19.310;2023-02-15T03:08:51;36.50;;;21.90;;
17818;SDS011;9034;50.284;19.310;2023-02-15T03:09:58;34.22;;;22.48;;
17818;SDS011;9034;50.284;19.310;2023-02-15T03:11:04;29.30;;;21.48;;
17818;SDS011;9034;50.284;19.310;2023-02-15T03:12:08;35.22;;;21.85;;
17818;SDS011;9034;50.284;19.310;2023-02-15T03:13:14;33.78;;;21.75;;
17818;SDS011;9034;50.284;19.310;2023-02-15T03:14:18;35.58;;;23.40;;
17818;SDS011;9034;50.284;19.310;2023-02-15T03:15:21;33.22;;;22.25;;
17818;SDS011;9034;50.284;19.310;2023-02-15T03:16:27;39.28;;;24.00;;
17818;SDS011;9034;50.284;19.310;2023-02-15T03:17:30;41.53;;;24.80;;
17818;SDS011;9034;50.284;19.310;2023-02-15T03:18:34;36.08;;;24.45;;
17818;SDS011;9034;50.284;19.310;2023-02-15T03:19:40;38.13;;;23.55;;
17818;SDS011;9034;50.284;19.310;2023-02-15T03:20:42;43.95;;;25.42;;
17818;SDS011;9034;50.284;19.310;2023-02-15T03:21:47;38.05;;;23.50;;
17818;SDS011;9034;50.284;19.310;2023-02-15T03:22:59;35.80;;;22.52;;
17818;SDS011;9034;50.284;19.310;2023-02-15T03:24:05;38.53;;;23.27;;
17818;SDS011;9034;50.284;19.310;2023-02-15T03:25:11;35.90;;;23.75;;
17818;SDS011;9034;50.284;19.310;2023-02-15T03:26:15;37.30;;;24.35;;
17818;SDS011;9034;50.284;19.310;2023-02-15T03:27:20;39.87;;;24.27;;
17818;SDS011;9034;50.284;19.310;2023-02-15T03:28:27;39.35;;;24.08;;
17818;SDS011;9034;50.284;19.310;2023-02-15T03:29:31;38.38;;;25.05;;
17818;SDS011;9034;50.284;19.310;2023-02-15T03:30:36;38.05;;;24.77;;
17818;SDS011;9034;50.284;19.310;2023-02-15T03:31:40;39.30;;;23.95;;
17818;SDS011;9034;50.284;19.310;2023-02-15T03:32:44;40.97;;;24.55;;
17818;SDS011;9034;50.284;19.310;2023-02-15T03:33:49;40.60;;;25.65;;
17818;SDS011;9034;50.284;19.310;2023-02-15T03:34:57;46.40;;;27.92;;
17818;SDS011;9034;50.284;19.310;2023-02-15T03:36:00;45.15;;;25.35;;
17818;SDS011;9034;50.284;19.310;2023-02-15T03:37:05;42.67;;;25.08;;
17818;SDS011;9034;50.284;19.310;2023-02-15T03:38:11;50.55;;;27.70;;
17818;SDS011;9034;50.284;19.310;2023-02-15T03:39:18;41.15;;;25.63;;
17818;SDS011;9034;50.284;19.310;2023-02-15T03:40:22;44.08;;;26.15;;
17818;SDS011;9034;50.284;19.310;2023-02-15T03:41:45;46.80;;;26.58;;
17818;SDS011;9034;50.284;19.310;2023-02-15T03:42:53;43.33;;;25.38;;
17818;SDS011;9034;50.284;19.310;2023-02-15T03:43:59;45.78;;;26.92;;
17818;SDS011;9034;50.284;19.310;2023-02-15T03:45:04;39.13;;;25.63;;
17818;SDS011;9034;50.284;19.310;2023-02-15T03:46:11;39.10;;;25.83;;
17818;SDS011;9034;50.284;19.310;2023-02-15T03:47:15;40.92;;;25.23;;
17818;SDS011;9034;50.284;19.310;2023-02-15T03:48:21;41.50;;;27.08;;
17818;SDS011;9034;50.284;19.310;2023-02-15T03:49:25;37.90;;;24.10;;
17818;SDS011;9034;50.284;19.310;2023-02-15T03:50:32;37.70;;;25.05;;
17818;SDS011;9034;50.284;19.310;2023-02-15T03:51:56;37.08;;;23.98;;
17818;SDS011;9034;50.284;19.310;2023-02-15T03:53:00;32.47;;;22.10;;
17818;SDS011;9034;50.284;19.310;2023-02-15T03:54:04;33.55;;;23.25;;
17818;SDS011;9034;50.284;19.310;2023-02-15T03:55:09;35.13;;;22.52;;
17818;SDS011;9034;50.284;19.310;2023-02-15T03:56:12;38.25;;;23.27;;
17818;SDS011;9034;50.284;19.310;2023-02-15T03:57:15;40.05;;;24.63;;
17818;SDS011;9034;50.284;19.310;2023-02-15T03:58:38;34.95;;;23.45;;
17818;SDS011;9034;50.284;19.310;2023-02-15T03:59:59;35.17;;;22.63;;
17818;SDS011;9034;50.284;19.310;2023-02-15T04:01:22;35.38;;;22.10;;
17818;SDS011;9034;50.284;19.310;2023-02-15T04:04:23;29.92;;;16.88;;
17818;SDS011;9034;50.284;19.310;2023-02-15T04:05:27;27.80;;;17.67;;
17818;SDS011;9034;50.284;19.310;2023-02-15T04:06:31;31.67;;;19.23;;
17818;SDS011;9034;50.284;19.310;2023-02-15T04:07:33;28.42;;;18.23;;
17818;SDS011;9034;50.284;19.310;2023-02-15T04:08:36;30.67;;;18.67;;
17818;SDS011;9034;50.284;19.310;2023-02-15T04:09:59;31.30;;;18.08;;
17818;SDS011;9034;50.284;19.310;2023-02-15T04:11:20;30.70;;;18.77;;
17818;SDS011;9034;50.284;19.310;2023-02-15T04:12:21;28.05;;;19.77;;
17818;SDS011;9034;50.284;19.310;2023-02-15T04:13:29;26.50;;;18.67;;
17818;SDS011;9034;50.284;19.310;2023-02-15T04:14:33;27.77;;;17.63;;
17818;SDS011;9034;50.284;19.310;2023-02-15T04:15:54;31.40;;;15.75;;
17818;SDS011;9034;50.284;19.310;2023-02-15T04:17:06;29.90;;;15.48;;
17818;SDS011;9034;50.284;19.310;2023-02-15T04:18:09;25.65;;;17.25;;
17818;SDS011;9034;50.284;19.310;2023-02-15T04:19:12;29.50;;;18.65;;
17818;SDS011;9034;50.284;19.310;2023-02-15T04:20:32;24.50;;;15.43;;
17818;SDS011;9034;50.284;19.310;2023-02-15T04:21:54;23.52;;;15.95;;
17818;SDS011;9034;50.284;19.310;2023-02-15T04:23:14;23.23;;;17.60;;
17818;SDS011;9034;50.284;19.310;2023-02-15T04:24:34;24.52;;;17.52;;
17818;SDS011;9034;50.284;19.310;2023-02-15T04:25:55;23.25;;;15.73;;
17818;SDS011;9034;50.284;19.310;2023-02-15T04:26:58;28.55;;;18.15;;
17818;SDS011;9034;50.284;19.310;2023-02-15T04:28:00;24.38;;;17.70;;
17818;SDS011;9034;50.284;19.310;2023-02-15T04:29:03;22.52;;;17.90;;
17818;SDS011;9034;50.284;19.310;2023-02-15T04:30:06;23.65;;;16.90;;
17818;SDS011;9034;50.284;19.310;2023-02-15T04:31:09;25.98;;;18.63;;
17818;SDS011;9034;50.284;19.310;2023-02-15T04:32:12;29.10;;;19.00;;
17818;SDS011;9034;50.284;19.310;2023-02-15T04:33:14;27.17;;;18.33;;
17818;SDS011;9034;50.284;19.310;2023-02-15T04:34:17;27.33;;;19.55;;
17818;SDS011;9034;50.284;19.310;2023-02-15T04:35:19;28.33;;;19.67;;
17818;SDS011;9034;50.284;19.310;2023-02-15T04:36:22;28.80;;;20.30;;
17818;SDS011;9034;50.284;19.310;2023-02-15T04:37:25;29.05;;;19.48;;
17818;SDS011;9034;50.284;19.310;2023-02-15T04:38:28;28.65;;;18.02;;
17818;SDS011;9034;50.284;19.310;2023-02-15T04:39:30;31.88;;;20.45;;
17818;SDS011;9034;50.284;19.310;2023-02-15T04:40:33;26.13;;;18.48;;
17818;SDS011;9034;50.284;19.310;2023-02-15T04:41:35;24.58;;;18.50;;
17818;SDS011;9034;50.284;19.310;2023-02-15T04:42:38;27.42;;;18.60;;
17818;SDS011;9034;50.284;19.310;2023-02-15T04:43:40;23.27;;;17.75;;
17818;SDS011;9034;50.284;19.310;2023-02-15T04:44:43;28.83;;;18.67;;
17818;SDS011;9034;50.284;19.310;2023-02-15T04:45:47;22.23;;;18.20;;
17818;SDS011;9034;50.284;19.310;2023-02-15T04:46:51;30.08;;;18.63;;
17818;SDS011;9034;50.284;19.310;2023-02-15T04:47:53;22.77;;;17.65;;
17818;SDS011;9034;50.284;19.310;2023-02-15T04:48:56;23.08;;;18.08;;
17818;SDS011;9034;50.284;19.310;2023-02-15T04:49:58;26.85;;;18.70;;
17818;SDS011;9034;50.284;19.310;2023-02-15T04:51:04;25.90;;;19.23;;
17818;SDS011;9034;50.284;19.310;2023-02-15T04:52:06;27.38;;;20.77;;
17818;SDS011;9034;50.284;19.310;2023-02-15T04:53:10;23.33;;;17.90;;
17818;SDS011;9034;50.284;19.310;2023-02-15T04:54:13;26.55;;;19.20;;
17818;SDS011;9034;50.284;19.310;2023-02-15T04:55:15;27.65;;;19.48;;
17818;SDS011;9034;50.284;19.310;2023-02-15T04:56:18;26.98;;;19.00;;
17818;SDS011;9034;50.284;19.310;2023-02-15T04:57:21;24.80;;;18.35;;
17818;SDS011;9034;50.284;19.310;2023-02-15T04:58:23;24.50;;;19.45;;
17818;SDS011;9034;50.284;19.310;2023-02-15T04:59:25;24.95;;;18.33;;
17818;SDS011;9034;50.284;19.310;2023-02-15T05:00:28;27.02;;;18.73;;
17818;SDS011;9034;50.284;19.310;2023-02-15T05:01:31;24.10;;;18.63;;
17818;SDS011;9034;50.284;19.310;2023-02-15T05:02:33;26.30;;;19.27;;
17818;SDS011;9034;50.284;19.310;2023-02-15T05:03:36;22.85;;;17.63;;
17818;SDS011;9034;50.284;19.310;2023-02-15T05:04:38;32.03;;;19.25;;
17818;SDS011;9034;50.284;19.310;2023-02-15T05:05:40;29.48;;;20.02;;
17818;SDS011;9034;50.284;19.310;2023-02-15T05:06:43;28.02;;;19.83;;
17818;SDS011;9034;50.284;19.310;2023-02-15T05:07:45;27.55;;;19.58;;
17818;SDS011;9034;50.284;19.310;2023-02-15T05:08:49;27.90;;;19.98;;
17818;SDS011;9034;50.284;19.310;2023-02-15T05:09:51;25.58;;;19.55;;
17818;SDS011;9034;50.284;19.310;2023-02-15T05:10:54;24.67;;;18.38;;
17818;SDS011;9034;50.284;19.310;2023-02-15T05:11:56;25.73;;;19.48;;
17818;SDS011;9034;50.284;19.310;2023-02-15T05:12:59;26.95;;;19.20;;
17818;SDS011;9034;50.284;19.310;2023-02-15T05:14:01;27.48;;;19.00;;
17818;SDS011;9034;50.284;19.310;2023-02-15T05:15:04;27.98;;;18.73;;
17818;SDS011;9034;50.284;19.310;2023-02-15T05:16:06;28.15;;;19.45;;
17818;SDS011;9034;50.284;19.310;2023-02-15T05:17:09;26.95;;;17.33;;
17818;SDS011;9034;50.284;19.310;2023-02-15T05:18:10;23.42;;;18.52;;
17818;SDS011;9034;50.284;19.310;2023-02-15T05:19:13;26.15;;;18.92;;
17818;SDS011;9034;50.284;19.310;2023-02-15T05:20:15;27.52;;;19.02;;
17818;SDS011;9034;50.284;19.310;2023-02-15T05:21:19;26.05;;;19.10;;
17818;SDS011;9034;50.284;19.310;2023-02-15T05:22:21;26.50;;;19.63;;
17818;SDS011;9034;50.284;19.310;2023-02-15T05:23:24;26.67;;;20.58;;
17818;SDS011;9034;50.284;19.310;2023-02-15T05:24:27;34.20;;;22.05;;
17818;SDS011;9034;50.284;19.310;2023-02-15T05:25:48;28.55;;;17.70;;
17818;SDS011;9034;50.284;19.310;2023-02-15T05:27:09;32.83;;;21.00;;
17818;SDS011;9034;50.284;19.310;2023-02-15T05:28:30;28.83;;;20.65;;
17818;SDS011;9034;50.284;19.310;2023-02-15T05:29:33;35.53;;;20.92;;
17818;SDS011;9034;50.284;19.310;2023-02-15T05:30:35;27.50;;;20.40;;
17818;SDS011;9034;50.284;19.310;2023-02-15T05:31:38;27.33;;;20.00;;
17818;SDS011;9034;50.284;19.310;2023-02-15T05:32:40;29.38;;;20.02;;
17818;SDS011;9034;50.284;19.310;2023-02-15T05:33:43;31.95;;;22.42;;
17818;SDS011;9034;50.284;19.310;2023-02-15T05:34:45;29.70;;;21.38;;
17818;SDS011;9034;50.284;19.310;2023-02-15T05:35:48;28.77;;;20.50;;
17818;SDS011;9034;50.284;19.310;2023-02-15T05:36:50;27.38;;;19.50;;
17818;SDS011;9034;50.284;19.310;2023-02-15T05:37:53;26.08;;;18.65;;
17818;SDS011;9034;50.284;19.310;2023-02-15T05:38:55;27.63;;;20.75;;
17818;SDS011;9034;50.284;19.310;2023-02-15T05:39:59;28.38;;;19.48;;
17818;SDS011;9034;50.284;19.310;2023-02-15T05:41:01;27.33;;;19.77;;
17818;SDS011;9034;50.284;19.310;2023-02-15T05:42:04;28.02;;;20.73;;
17818;SDS011;9034;50.284;19.310;2023-02-15T05:43:06;28.17;;;18.75;;
17818;SDS011;9034;50.284;19.310;2023-02-15T05:44:09;26.40;;;19.77;;
17818;SDS011;9034;50.284;19.310;2023-02-15T05:45:11;31.70;;;21.15;;
17818;SDS011;9034;50.284;19.310;2023-02-15T05:46:13;27.85;;;18.80;;
17818;SDS011;9034;50.284;19.310;2023-02-15T05:47:15;32.10;;;21.23;;
17818;SDS011;9034;50.284;19.310;2023-02-15T05:48:19;29.98;;;20.95;;
17818;SDS011;9034;50.284;19.310;2023-02-15T05:49:22;26.48;;;20.30;;
17818;SDS011;9034;50.284;19.310;2023-02-15T05:50:24;24.55;;;19.38;;
17818;SDS011;9034;50.284;19.310;2023-02-15T05:51:27;27.08;;;19.30;;
17818;SDS011;9034;50.284;19.310;2023-02-15T05:52:29;27.50;;;19.58;;
17818;SDS011;9034;50.284;19.310;2023-02-15T05:53:32;25.85;;;19.42;;
17818;SDS011;9034;50.284;19.310;2023-02-15T05:54:36;27.35;;;17.70;;
17818;SDS011;9034;50.284;19.310;2023-02-15T05:55:40;23.27;;;17.73;;
17818;SDS011;9034;50.284;19.310;2023-02-15T05:56:42;27.25;;;19.10;;
17818;SDS011;9034;50.284;19.310;2023-02-15T05:57:45;27.77;;;19.35;;
17818;SDS011;9034;50.284;19.310;2023-02-15T05:58:46;28.42;;;20.00;;
17818;SDS011;9034;50.284;19.310;2023-02-15T05:59:49;34.08;;;22.42;;
17818;SDS011;9034;50.284;19.310;2023-02-15T06:00:51;32.20;;;21.05;;
17818;SDS011;9034;50.284;19.310;2023-02-15T06:01:54;28.70;;;18.30;;
17818;SDS011;9034;50.284;19.310;2023-02-15T06:02:56;33.28;;;22.55;;
17818;SDS011;9034;50.284;19.310;2023-02-15T06:03:59;36.65;;;21.60;;
17818;SDS011;9034;50.284;19.310;2023-02-15T06:05:02;30.58;;;21.02;;
17818;SDS011;9034;50.284;19.310;2023-02-15T06:06:04;28.20;;;19.98;;
17818;SDS011;9034;50.284;19.310;2023-02-15T06:07:07;30.42;;;20.60;;
17818;SDS011;9034;50.284;19.310;2023-02-15T06:08:09;44.20;;;23.13;;
17818;SDS011;9034;50.284;19.310;2023-02-15T06:09:12;29.10;;;20.00;;
17818;SDS011;9034;50.284;19.310;2023-02-15T06:10:15;33.28;;;20.63;;
17818;SDS011;9034;50.284;19.310;2023-02-15T06:11:19;29.23;;;20.13;;
17818;SDS011;9034;50.284;19.310;2023-02-15T06:12:21;27.45;;;19.25;;
17818;SDS011;9034;50.284;19.310;2023-02-15T06:13:24;30.63;;;19.80;;
17818;SDS011;9034;50.284;19.310;2023-02-15T06:14:26;27.75;;;18.27;;
17818;SDS011;9034;50.284;19.310;2023-02-15T06:15:29;27.60;;;17.33;;
17818;SDS011;9034;50.284;19.310;2023-02-15T06:16:31;28.00;;;18.63;;
17818;SDS011;9034;50.284;19.310;2023-02-15T06:17:34;28.33;;;18.35;;
17818;SDS011;9034;50.284;19.310;2023-02-15T06:18:36;23.85;;;18.13;;
17818;SDS011;9034;50.284;19.310;2023-02-15T06:19:39;25.92;;;18.83;;
17818;SDS011;9034;50.284;19.310;2023-02-15T06:20:40;34.97;;;21.63;;
17818;SDS011;9034;50.284;19.310;2023-02-15T06:21:43;39.10;;;24.77;;
17818;SDS011;9034;50.284;19.310;2023-02-15T06:22:45;35.40;;;24.27;;
17818;SDS011;9034;50.284;19.310;2023-02-15T06:23:48;40.15;;;24.73;;
17818;SDS011;9034;50.284;19.310;2023-02-15T06:24:51;32.55;;;22.88;;
17818;SDS011;9034;50.284;19.310;2023-02-15T06:25:54;28.70;;;20.13;;
17818;SDS011;9034;50.284;19.310;2023-02-15T06:26:59;30.27;;;21.02;;
17818;SDS011;9034;50.284;19.310;2023-02-15T06:28:01;29.02;;;21.40;;
17818;SDS011;9034;50.284;19.310;2023-02-15T06:29:04;31.48;;;21.60;;